createdAt,value
2022-10-22T00:00:48.852Z,21.17
2022-10-22T00:03:20.724Z,21.43
2022-10-22T00:05:52.598Z,22.53
2022-10-22T00:08:24.491Z,23.03
2022-10-22T00:10:56.498Z,20.83
2022-10-22T00:13:28.414Z,21.80
2022-10-22T00:16:00.291Z,21.90
2022-10-22T00:18:32.265Z,23.60
2022-10-22T00:21:04.615Z,20.57
2022-10-22T00:23:36.441Z,22.60
2022-10-22T00:26:08.263Z,21.70
2022-10-22T00:28:40.593Z,20.83
2022-10-22T00:31:12.571Z,19.83
2022-10-22T00:33:46.359Z,20.20
2022-10-22T00:36:18.216Z,19.87
2022-10-22T00:38:50.884Z,20.23
2022-10-22T00:41:22.728Z,20.50
2022-10-22T00:43:57.786Z,19.80
2022-10-22T00:46:29.975Z,20.10
2022-10-22T00:49:03.375Z,18.60
2022-10-22T00:51:35.866Z,20.17
2022-10-22T00:54:08.711Z,21.20
2022-10-22T00:56:40.869Z,19.00
2022-10-22T00:59:13.229Z,19.30
2022-10-22T01:01:45.283Z,18.93
2022-10-22T01:04:17.306Z,20.23
2022-10-22T01:06:49.456Z,20.67
2022-10-22T01:09:42.716Z,20.50
2022-10-22T01:12:17.052Z,20.90
2022-10-22T01:15:16.919Z,20.20
2022-10-22T01:18:05.356Z,19.20
2022-10-22T01:21:09.874Z,19.97
2022-10-22T01:23:50.247Z,19.80
2022-10-22T01:26:26.699Z,21.90
2022-10-22T01:29:00.563Z,19.67
2022-10-22T01:31:36.090Z,20.30
2022-10-22T01:34:08.283Z,22.37
2022-10-22T01:36:42.228Z,21.47
2022-10-22T01:39:16.406Z,20.80
2022-10-22T01:41:49.185Z,19.97
2022-10-22T01:44:29.940Z,21.33
2022-10-22T01:47:16.431Z,22.87
2022-10-22T01:50:35.913Z,21.30
2022-10-22T01:53:18.190Z,22.50
2022-10-22T01:56:15.980Z,20.77
2022-10-22T01:59:12.082Z,20.90
2022-10-22T02:01:48.333Z,20.37
2022-10-22T02:04:35.994Z,21.00
2022-10-22T02:07:09.855Z,20.30
2022-10-22T02:09:43.422Z,22.30
2022-10-22T02:12:16.492Z,21.07
2022-10-22T02:14:49.388Z,22.70
2022-10-22T02:17:22.347Z,19.50
2022-10-22T02:20:11.039Z,21.50
2022-10-22T02:22:43.736Z,21.93
2022-10-22T02:25:16.709Z,21.77
2022-10-22T02:28:01.686Z,21.30
2022-10-22T02:30:34.005Z,19.93
2022-10-22T02:33:13.308Z,23.03
2022-10-22T02:35:45.539Z,22.40
2022-10-22T02:38:18.238Z,20.77
2022-10-22T02:40:50.229Z,18.90
2022-10-22T02:43:24.509Z,21.40
2022-10-22T02:45:56.392Z,21.73
2022-10-22T02:48:28.350Z,20.50
2022-10-22T02:51:00.370Z,20.00
2022-10-22T02:53:32.667Z,20.40
2022-10-22T02:56:05.214Z,19.67
2022-10-22T02:58:37.106Z,20.50
2022-10-22T03:01:11.276Z,19.57
2022-10-22T03:03:45.844Z,21.10
2022-10-22T03:06:18.090Z,20.47
2022-10-22T03:08:50.678Z,20.70
2022-10-22T03:11:22.618Z,21.00
2022-10-22T03:13:54.587Z,19.57
2022-10-22T03:16:26.455Z,22.40
2022-10-22T03:18:58.645Z,20.40
2022-10-22T03:21:41.022Z,22.27
2022-10-22T03:24:16.324Z,20.43
2022-10-22T03:26:50.870Z,19.47
2022-10-22T03:29:24.184Z,20.97
2022-10-22T03:31:56.003Z,19.77
2022-10-22T03:34:28.548Z,20.33
2022-10-22T03:37:01.104Z,22.17
2022-10-22T03:39:34.973Z,18.97
2022-10-22T03:42:08.071Z,20.90
2022-10-22T03:44:40.467Z,21.30
2022-10-22T03:47:12.356Z,20.67
2022-10-22T03:49:44.409Z,19.67
2022-10-22T03:52:16.709Z,22.33
2022-10-22T03:54:48.567Z,20.27
2022-10-22T03:57:20.398Z,19.43
2022-10-22T03:59:52.309Z,20.80
2022-10-22T04:02:24.208Z,20.70
2022-10-22T04:04:56.090Z,22.17
2022-10-22T04:07:28.195Z,22.50
2022-10-22T04:10:00.246Z,20.60
2022-10-22T04:12:32.141Z,21.63
2022-10-22T04:15:04.735Z,22.23
2022-10-22T04:17:37.365Z,22.43
2022-10-22T04:20:10.211Z,20.70
2022-10-22T04:22:42.258Z,20.40
2022-10-22T04:25:14.195Z,22.80
2022-10-22T04:27:46.058Z,22.70
2022-10-22T04:30:18.124Z,23.10
2022-10-22T04:32:50.277Z,25.13
2022-10-22T04:35:22.214Z,24.77
2022-10-22T04:37:54.796Z,22.60
2022-10-22T04:40:26.687Z,24.17
2022-10-22T04:42:58.562Z,23.43
2022-10-22T04:45:30.654Z,23.43
2022-10-22T04:48:02.770Z,21.70
2022-10-22T04:50:35.571Z,21.63
2022-10-22T04:53:07.824Z,22.47
2022-10-22T04:55:39.702Z,20.50
2022-10-22T04:58:11.622Z,21.20
2022-10-22T05:00:43.497Z,20.70
2022-10-22T05:03:15.440Z,22.70
2022-10-22T05:05:47.378Z,21.20
2022-10-22T05:08:19.227Z,21.73
2022-10-22T05:10:51.047Z,21.50
2022-10-22T05:13:22.920Z,20.20
2022-10-22T05:15:54.834Z,21.43
2022-10-22T05:18:26.807Z,21.70
2022-10-22T05:20:58.764Z,20.47
2022-10-22T05:23:30.822Z,20.70
2022-10-22T05:26:04.027Z,22.33
2022-10-22T05:28:36.442Z,21.47
2022-10-22T05:31:09.107Z,20.83
2022-10-22T05:33:41.743Z,20.23
2022-10-22T05:36:17.184Z,20.90
2022-10-22T05:38:49.735Z,22.77
2022-10-22T05:41:24.010Z,21.67
2022-10-22T05:43:57.266Z,21.73
2022-10-22T05:46:30.227Z,22.13
2022-10-22T05:49:04.393Z,22.07
2022-10-22T05:51:37.308Z,21.80
2022-10-22T05:54:10.953Z,22.50
2022-10-22T05:56:42.774Z,23.17
2022-10-22T05:59:14.649Z,22.10
2022-10-22T06:01:46.566Z,21.40
2022-10-22T06:04:18.555Z,20.30
2022-10-22T06:06:51.788Z,21.77
2022-10-22T06:09:26.438Z,20.87
2022-10-22T06:11:58.732Z,19.67
2022-10-22T06:14:32.611Z,20.30
2022-10-22T06:17:04.551Z,22.33
2022-10-22T06:19:36.489Z,21.80
2022-10-22T06:22:08.544Z,19.77
2022-10-22T06:24:42.904Z,20.93
2022-10-22T06:27:16.942Z,21.73
2022-10-22T06:29:49.104Z,20.87
2022-10-22T06:32:21.042Z,19.20
2022-10-22T06:34:52.966Z,21.43
2022-10-22T06:37:24.770Z,21.73
2022-10-22T06:39:56.699Z,19.30
2022-10-22T06:42:28.861Z,20.30
2022-10-22T06:47:33.764Z,20.27
2022-10-22T06:50:06.025Z,21.53
2022-10-22T06:52:38.087Z,19.27
2022-10-22T06:55:10.551Z,19.10
2022-10-22T06:57:43.499Z,18.23
2022-10-22T07:00:15.820Z,19.07
2022-10-22T07:02:56.430Z,19.27
2022-10-22T07:05:34.098Z,19.13
2022-10-22T07:08:06.237Z,17.93
2022-10-22T07:10:38.202Z,18.40
2022-10-22T07:13:10.326Z,18.60
2022-10-22T07:15:42.372Z,19.70
2022-10-22T07:18:14.205Z,19.57
2022-10-22T07:20:47.842Z,19.30
2022-10-22T07:23:19.781Z,20.10
2022-10-22T07:25:51.845Z,19.10
2022-10-22T07:28:24.003Z,19.50
2022-10-22T07:30:55.862Z,19.20
2022-10-22T07:33:27.869Z,20.93
2022-10-22T07:36:01.498Z,18.67
2022-10-22T07:38:33.997Z,17.53
2022-10-22T07:41:05.924Z,19.73
2022-10-22T07:43:37.931Z,18.67
2022-10-22T07:46:09.819Z,19.60
2022-10-22T07:48:41.781Z,20.90
2022-10-22T07:51:13.959Z,18.37
2022-10-22T07:53:46.116Z,19.37
2022-10-22T07:56:18.025Z,19.00
2022-10-22T07:58:50.037Z,19.27
2022-10-22T08:01:22.014Z,20.10
2022-10-22T08:03:54.213Z,19.07
2022-10-22T08:06:26.201Z,17.10
2022-10-22T08:08:58.203Z,17.20
2022-10-22T08:11:31.072Z,20.27
2022-10-22T08:14:03.192Z,17.97
2022-10-22T08:16:35.192Z,18.60
2022-10-22T08:19:07.397Z,17.27
2022-10-22T08:21:40.182Z,18.67
2022-10-22T08:24:13.267Z,18.87
2022-10-22T08:26:45.308Z,19.27
2022-10-22T08:29:17.344Z,19.93
2022-10-22T08:31:50.878Z,16.60
2022-10-22T08:34:22.778Z,17.97
2022-10-22T08:36:55.153Z,18.20
2022-10-22T08:39:27.349Z,17.23
2022-10-22T08:42:32.266Z,16.63
2022-10-22T08:45:46.871Z,15.20
2022-10-22T08:48:36.875Z,16.40
2022-10-22T08:51:13.349Z,14.87
2022-10-22T08:53:58.712Z,14.90
2022-10-22T08:56:31.469Z,13.30
2022-10-22T08:59:12.845Z,10.63
2022-10-22T09:01:47.489Z,11.70
2022-10-22T09:04:45.427Z,11.07
2022-10-22T09:07:17.364Z,11.40
2022-10-22T09:09:51.270Z,9.23
2022-10-22T09:12:24.893Z,11.37
2022-10-22T09:14:56.809Z,10.53
2022-10-22T09:17:36.109Z,11.13
2022-10-22T09:20:26.270Z,10.00
2022-10-22T09:23:32.112Z,10.20
2022-10-22T09:26:14.885Z,9.93
2022-10-22T09:28:50.972Z,9.60
2022-10-22T09:31:22.948Z,9.30
2022-10-22T09:33:55.027Z,8.60
2022-10-22T09:36:29.133Z,9.00
2022-10-22T09:39:01.607Z,8.97
2022-10-22T09:41:33.480Z,9.70
2022-10-22T09:44:07.037Z,9.67
2022-10-22T09:46:45.508Z,7.53
2022-10-22T09:49:22.662Z,8.83
2022-10-22T09:51:58.986Z,7.80
2022-10-22T09:54:33.564Z,8.63
2022-10-22T09:57:14.361Z,7.67
2022-10-22T09:59:49.129Z,7.93
2022-10-22T10:02:38.286Z,7.70
2022-10-22T10:05:18.992Z,7.27
2022-10-22T10:07:50.864Z,6.67
2022-10-22T10:10:37.851Z,7.03
2022-10-22T10:13:38.922Z,6.87
2022-10-22T10:16:26.003Z,7.93
2022-10-22T10:19:22.952Z,5.83
2022-10-22T10:22:03.836Z,5.50
2022-10-22T10:25:00.720Z,6.53
2022-10-22T10:27:38.799Z,5.87
2022-10-22T10:30:16.970Z,7.27
2022-10-22T10:33:00.828Z,5.83
2022-10-22T10:35:55.215Z,7.07
2022-10-22T10:38:46.187Z,5.80
2022-10-22T10:41:27.162Z,6.07
2022-10-22T10:44:03.587Z,5.40
2022-10-22T10:47:03.371Z,4.43
2022-10-22T10:49:36.276Z,4.30
2022-10-22T10:52:20.351Z,4.63
2022-10-22T10:55:08.783Z,4.33
2022-10-22T10:57:51.426Z,3.70
2022-10-22T11:00:24.083Z,3.97
2022-10-22T11:03:11.408Z,3.57
2022-10-22T11:05:59.156Z,3.50
2022-10-22T11:08:32.388Z,3.43
2022-10-22T11:11:44.159Z,3.53
2022-10-22T11:14:30.661Z,4.17
2022-10-22T11:17:07.160Z,3.80
2022-10-22T11:19:51.604Z,4.90
2022-10-22T11:22:38.173Z,4.23
2022-10-22T11:25:13.288Z,3.13
2022-10-22T11:28:03.857Z,3.10
2022-10-22T11:30:41.084Z,3.30
2022-10-22T11:33:17.583Z,3.20
2022-10-22T11:35:50.623Z,3.33
2022-10-22T11:38:25.852Z,3.00
2022-10-22T11:41:11.239Z,3.40
2022-10-22T11:43:55.316Z,3.60
2022-10-22T11:46:34.612Z,3.70
2022-10-22T11:49:15.160Z,3.10
2022-10-22T11:51:47.595Z,2.60
2022-10-22T11:54:42.522Z,3.10
2022-10-22T11:57:14.489Z,4.73
2022-10-22T12:00:00.274Z,4.10
2022-10-22T12:02:45.982Z,3.30
2022-10-22T12:05:23.777Z,5.93
2022-10-22T12:08:25.592Z,3.67
2022-10-22T12:11:03.766Z,4.30
2022-10-22T12:14:11.611Z,4.27
2022-10-22T12:16:55.644Z,4.13
2022-10-22T12:19:32.236Z,4.23
2022-10-22T12:22:10.161Z,3.40
2022-10-22T12:24:46.252Z,4.33
2022-10-22T12:27:23.137Z,4.03
2022-10-22T12:29:59.778Z,4.90
2022-10-22T12:32:36.919Z,4.40
2022-10-22T12:35:17.358Z,4.53
2022-10-22T12:37:51.046Z,5.53
2022-10-22T12:40:45.827Z,5.57
2022-10-22T12:43:25.681Z,5.17
2022-10-22T12:45:59.354Z,5.73
2022-10-22T12:48:36.152Z,6.00
2022-10-22T12:51:09.473Z,5.43
2022-10-22T12:53:50.926Z,6.17
2022-10-22T12:56:30.191Z,7.00
2022-10-22T12:59:04.191Z,5.97
2022-10-22T13:01:39.986Z,6.37
2022-10-22T13:04:14.490Z,6.20
2022-10-22T13:06:48.634Z,6.90
2022-10-22T13:09:23.959Z,5.83
2022-10-22T13:12:05.468Z,5.73
2022-10-22T13:14:38.649Z,7.10
2022-10-22T13:17:17.139Z,6.70
2022-10-22T13:19:54.780Z,6.00
2022-10-22T13:22:26.783Z,6.10
2022-10-22T13:25:04.318Z,5.23
2022-10-22T13:27:43.602Z,6.00
2022-10-22T13:30:33.772Z,5.20
2022-10-22T13:33:20.172Z,5.83
2022-10-22T13:35:52.657Z,5.80
2022-10-22T13:38:26.311Z,5.43
2022-10-22T13:40:59.402Z,5.27
2022-10-22T13:43:31.306Z,5.60
2022-10-22T13:46:03.407Z,6.00
2022-10-22T13:48:35.449Z,5.70
2022-10-22T13:51:32.947Z,4.90
2022-10-22T13:54:12.857Z,5.03
2022-10-22T13:56:45.244Z,4.67
2022-10-22T13:59:19.775Z,4.40
2022-10-22T14:01:57.063Z,4.80
2022-10-22T14:04:29.105Z,4.80
2022-10-22T14:07:03.707Z,5.37
2022-10-22T14:09:36.065Z,5.80
2022-10-22T14:12:15.898Z,5.10
2022-10-22T14:14:48.209Z,4.57
2022-10-22T14:17:20.396Z,5.50
2022-10-22T14:19:52.339Z,4.83
2022-10-22T14:22:27.397Z,4.53
2022-10-22T14:24:59.244Z,5.47
2022-10-22T14:27:31.429Z,3.90
2022-10-22T14:30:04.465Z,5.00
2022-10-22T14:32:36.437Z,4.60
2022-10-22T14:35:12.340Z,4.63
2022-10-22T14:37:44.749Z,4.30
2022-10-22T14:40:19.229Z,4.47
2022-10-22T14:42:52.378Z,5.47
2022-10-22T14:45:26.186Z,5.13
2022-10-22T14:47:58.331Z,4.70
2022-10-22T14:50:30.309Z,5.07
2022-10-22T14:53:02.356Z,4.80
2022-10-22T14:55:34.332Z,3.83
2022-10-22T14:58:06.857Z,4.30
2022-10-22T15:00:41.915Z,4.30
2022-10-22T15:03:14.090Z,4.30
2022-10-22T15:05:46.358Z,4.17
2022-10-22T15:08:18.386Z,5.37
2022-10-22T15:11:05.465Z,6.23
2022-10-22T15:13:38.202Z,6.53
2022-10-22T15:16:11.320Z,5.60
2022-10-22T15:18:43.304Z,5.10
2022-10-22T15:21:20.525Z,5.97
2022-10-22T15:23:52.700Z,5.10
2022-10-22T15:26:25.071Z,4.33
2022-10-22T15:28:56.928Z,6.80
2022-10-22T15:31:53.269Z,6.93
2022-10-22T15:34:28.622Z,5.77
2022-10-22T15:37:03.271Z,5.80
2022-10-22T15:39:35.689Z,6.50
2022-10-22T15:42:08.584Z,5.70
2022-10-22T15:44:40.772Z,5.47
2022-10-22T15:47:13.131Z,5.30
2022-10-22T15:49:45.904Z,5.20
2022-10-22T15:52:18.299Z,4.80
2022-10-22T15:54:50.207Z,4.53
2022-10-22T15:57:22.138Z,6.00
2022-10-22T15:59:54.175Z,5.50
2022-10-22T16:02:26.374Z,5.23
2022-10-22T16:04:58.831Z,5.37
2022-10-22T16:07:30.753Z,7.90
2022-10-22T16:10:02.613Z,7.40
2022-10-22T16:12:35.996Z,7.03
2022-10-22T16:15:08.955Z,6.80
2022-10-22T16:17:40.995Z,8.07
2022-10-22T16:22:45.002Z,6.87
2022-10-22T16:25:16.844Z,7.83
2022-10-22T16:27:50.807Z,8.80
2022-10-22T16:30:22.749Z,7.80
2022-10-22T16:32:54.669Z,8.67
2022-10-22T16:35:26.766Z,8.87
2022-10-22T16:37:58.838Z,7.97
2022-10-22T16:40:31.556Z,9.40
2022-10-22T16:43:03.657Z,8.57
2022-10-22T16:45:35.587Z,8.30
2022-10-22T16:48:07.557Z,7.00
2022-10-22T16:50:39.737Z,8.57
2022-10-22T16:53:11.840Z,8.87
2022-10-22T16:55:43.712Z,8.53
2022-10-22T16:58:15.615Z,8.33
2022-10-22T17:00:47.582Z,8.63
2022-10-22T17:03:19.545Z,7.97
2022-10-22T17:05:51.799Z,8.60
2022-10-22T17:08:23.730Z,8.57
2022-10-22T17:10:55.623Z,8.70
2022-10-22T17:13:27.487Z,9.40
2022-10-22T17:16:04.552Z,10.40
2022-10-22T17:18:37.854Z,9.80
2022-10-22T17:21:11.218Z,10.27
2022-10-22T17:23:43.433Z,9.67
2022-10-22T17:26:18.351Z,9.90
2022-10-22T17:28:50.686Z,9.13
2022-10-22T17:31:23.664Z,9.83
2022-10-22T17:33:56.646Z,9.60
2022-10-22T17:36:33.226Z,9.37
2022-10-22T17:39:08.409Z,9.30
2022-10-22T17:41:40.295Z,9.37
2022-10-22T17:44:12.744Z,8.57
2022-10-22T17:46:45.259Z,9.30
2022-10-22T17:49:19.385Z,9.33
2022-10-22T17:51:51.432Z,9.40
2022-10-22T17:54:23.359Z,8.87
2022-10-22T17:56:55.475Z,9.50
2022-10-22T17:59:27.589Z,9.67
2022-10-22T18:02:02.188Z,9.40
2022-10-22T18:04:35.616Z,10.20
2022-10-22T18:07:07.621Z,10.07
2022-10-22T18:09:39.623Z,10.77
2022-10-22T18:12:13.747Z,11.23
2022-10-22T18:14:47.004Z,9.73
2022-10-22T18:17:18.976Z,10.40
2022-10-22T18:19:50.778Z,10.53
2022-10-22T18:22:22.552Z,10.50
2022-10-22T18:24:54.411Z,10.40
2022-10-22T18:27:26.239Z,10.80
2022-10-22T18:29:58.175Z,10.50
2022-10-22T18:32:31.616Z,9.87
2022-10-22T18:35:04.134Z,9.50
2022-10-22T18:37:36.495Z,8.47
2022-10-22T18:40:13.682Z,9.30
2022-10-22T18:42:46.610Z,11.17
2022-10-22T18:45:18.716Z,10.30
2022-10-22T18:47:50.651Z,8.60
2022-10-22T18:50:22.578Z,8.60
2022-10-22T18:52:54.655Z,8.60
2022-10-22T18:55:26.524Z,11.47
2022-10-22T18:57:58.489Z,9.40
2022-10-22T19:00:30.489Z,9.40
2022-10-22T19:03:03.301Z,11.57
2022-10-22T19:05:35.147Z,10.83
2022-10-22T19:08:07.170Z,8.87
2022-10-22T19:10:39.258Z,9.83
2022-10-22T19:13:13.422Z,10.23
2022-10-22T19:15:45.459Z,9.13
2022-10-22T19:18:17.398Z,9.03
2022-10-22T19:20:57.954Z,9.27
2022-10-22T19:23:30.659Z,10.03
2022-10-22T19:26:06.957Z,9.47
2022-10-22T19:28:39.097Z,10.23
2022-10-22T19:31:15.038Z,9.57
2022-10-22T19:33:47.890Z,10.90
2022-10-22T19:36:20.095Z,9.60
2022-10-22T19:38:52.319Z,9.57
2022-10-22T19:41:25.568Z,10.10
2022-10-22T19:43:58.416Z,10.20
2022-10-22T19:46:32.409Z,11.67
2022-10-22T19:49:04.316Z,12.17
2022-10-22T19:51:36.156Z,11.90
2022-10-22T19:54:12.455Z,10.80
2022-10-22T19:56:45.301Z,9.90
2022-10-22T19:59:17.774Z,10.17
2022-10-22T20:01:49.753Z,12.63
2022-10-22T20:04:25.094Z,10.53
2022-10-22T20:06:56.994Z,10.53
2022-10-22T20:09:28.863Z,10.23
2022-10-22T20:12:00.951Z,13.20
2022-10-22T20:14:33.430Z,9.83
2022-10-22T20:17:05.484Z,10.53
2022-10-22T20:19:37.250Z,10.70
2022-10-22T20:22:09.104Z,10.20
2022-10-22T20:24:40.872Z,9.90
2022-10-22T20:27:13.364Z,10.13
2022-10-22T20:29:45.165Z,9.90
2022-10-22T20:32:17.161Z,11.00
2022-10-22T20:34:49.086Z,9.80
2022-10-22T20:37:20.943Z,10.20
2022-10-22T20:39:52.782Z,10.87
2022-10-22T20:42:24.539Z,9.53
2022-10-22T20:44:56.438Z,9.77
2022-10-22T20:47:39.134Z,9.10
2022-10-22T20:50:21.258Z,9.63
2022-10-22T20:52:53.697Z,11.90
2022-10-22T20:55:25.661Z,10.30
2022-10-22T20:57:57.563Z,10.80
2022-10-22T21:00:29.405Z,12.77
2022-10-22T21:03:01.307Z,10.93
2022-10-22T21:05:34.628Z,11.97
2022-10-22T21:08:06.605Z,10.50
2022-10-22T21:10:38.595Z,10.60
2022-10-22T21:13:10.847Z,11.73
2022-10-22T21:15:42.676Z,12.40
2022-10-22T21:18:14.836Z,11.57
2022-10-22T21:20:46.687Z,12.20
2022-10-22T21:23:18.427Z,11.90
2022-10-22T21:25:57.265Z,12.00
2022-10-22T21:31:06.784Z,11.30
2022-10-22T21:33:39.473Z,10.83
2022-10-22T21:36:11.319Z,10.10
2022-10-22T21:38:43.242Z,12.23
2022-10-22T21:41:16.698Z,10.63
2022-10-22T21:43:48.980Z,11.43
2022-10-22T21:46:23.866Z,11.93
2022-10-22T21:48:58.213Z,10.73
2022-10-22T21:51:32.094Z,10.30
2022-10-22T21:54:04.310Z,11.30
2022-10-22T21:56:36.695Z,10.17
2022-10-22T21:59:08.793Z,12.00
2022-10-22T22:01:40.689Z,11.60
2022-10-22T22:04:12.576Z,12.13
2022-10-22T22:06:44.519Z,11.90
2022-10-22T22:09:17.100Z,11.30
2022-10-22T22:11:48.991Z,12.67
2022-10-22T22:14:20.881Z,12.10
2022-10-22T22:16:52.814Z,14.00
2022-10-22T22:19:24.610Z,13.60
2022-10-22T22:21:56.433Z,13.00
2022-10-22T22:24:28.424Z,12.67
2022-10-22T22:27:00.648Z,13.00
2022-10-22T22:29:32.486Z,14.13
2022-10-22T22:32:04.587Z,13.20
2022-10-22T22:34:36.900Z,13.30
2022-10-22T22:37:08.660Z,13.03
2022-10-22T22:39:40.471Z,13.60
2022-10-22T22:42:12.331Z,14.97
2022-10-22T22:44:44.198Z,13.30
2022-10-22T22:47:16.081Z,13.67
2022-10-22T22:49:48.085Z,14.00
2022-10-22T22:54:52.677Z,13.43
2022-10-22T22:57:24.651Z,14.57
2022-10-22T22:59:56.415Z,14.07
2022-10-22T23:02:28.244Z,14.17
2022-10-22T23:05:00.239Z,14.50
2022-10-22T23:07:32.130Z,12.90
2022-10-22T23:10:04.026Z,14.83
2022-10-22T23:12:35.918Z,13.93
2022-10-22T23:15:08.013Z,13.60
2022-10-22T23:17:40.051Z,15.60
2022-10-22T23:20:11.882Z,14.87
2022-10-22T23:22:44.173Z,13.60
2022-10-22T23:25:16.219Z,97.40
2022-10-22T23:27:48.000Z,14.23
2022-10-22T23:30:20.006Z,14.20
2022-10-22T23:32:51.842Z,14.10
2022-10-22T23:35:23.709Z,14.80
2022-10-22T23:37:55.633Z,12.93
2022-10-22T23:40:27.425Z,14.70
2022-10-22T23:42:59.240Z,14.80
2022-10-22T23:45:34.422Z,13.57
2022-10-22T23:48:06.262Z,14.60
2022-10-22T23:50:38.177Z,13.37
2022-10-22T23:53:10.293Z,14.27
2022-10-22T23:55:44.169Z,13.80
2022-10-22T23:58:17.230Z,13.33
